Time;durP1;ratioP1;P1;durP2;ratioP2;P2;SDS_P1;SDS_P2;PMS_P1;PMS_P2;Temp;Humidity;BMP_temperature;BMP_pressure;BME280_temperature;BME280_humidity;BME280_pressure;Samples;Min_cycle;Max_cycle;Signal;HPM_P1;HPM_P2
2021/10/26 00:05:49;;;;;;;13.00;8.60;;;;;;;3.19;61.70;100000.88;464084;1190;140949;-65
2021/10/26 00:15:56;;;;;;;14.20;7.90;;;;;;;3.04;62.12;99995.37;477884;1190;139938;-68
2021/10/26 00:26:03;;;;;;;12.80;7.80;;;;;;;2.84;62.67;99997.10;477650;1190;139619;-68
2021/10/26 00:36:09;;;;;;;;;;;;;;;2.70;63.04;100000.90;476018;1190;142544;-68
2021/10/26 00:46:25;;;;;;;14.30;6.90;;;;;;;2.58;63.36;100007.95;477537;1190;132743;-67
2021/10/26 00:56:32;;;;;;;11.60;5.90;;;;;;;2.47;63.84;100002.34;477016;1190;141341;-67
2021/10/26 01:06:39;;;;;;;10.40;6.40;;;;;;;2.43;64.01;100006.76;477692;1189;144655;-68
2021/10/26 01:16:45;;;;;;;12.40;8.20;;;;;;;2.39;64.12;100003.89;477830;1190;141505;-68
2021/10/26 01:26:51;;;;;;;13.70;8.20;;;;;;;2.30;64.30;99997.90;477062;1190;142905;-68
2021/10/26 01:37:00;;;;;;;18.70;10.40;;;;;;;2.15;64.65;99991.98;477745;1190;142428;-68
2021/10/26 01:47:07;;;;;;;15.00;8.50;;;;;;;2.03;64.66;99985.91;477809;1190;141708;-68
2021/10/26 01:57:16;;;;;;;14.40;8.80;;;;;;;1.90;65.14;99987.38;477081;1190;141709;-68
2021/10/26 02:07:22;;;;;;;9.30;6.80;;;;;;;1.79;65.60;99987.78;477837;1190;141866;-67
2021/10/26 02:17:28;;;;;;;16.40;8.00;;;;;;;1.71;65.91;99987.08;468895;1190;140557;-66
2021/10/26 02:27:35;;;;;;;16.00;8.10;;;;;;;1.58;66.20;99987.54;472101;1190;141338;-66
2021/10/26 02:37:41;;;;;;;14.90;7.60;;;;;;;1.44;66.56;99986.42;477813;1189;141007;-67
2021/10/26 02:47:47;;;;;;;18.70;7.90;;;;;;;1.33;66.90;99990.80;476989;1190;141707;-67
2021/10/26 02:57:54;;;;;;;12.00;7.20;;;;;;;1.22;67.20;99989.61;477729;1190;142206;-68
2021/10/26 03:08:00;;;;;;;14.70;8.40;;;;;;;1.17;67.52;99989.72;472263;1190;141073;-67
2021/10/26 03:18:06;;;;;;;11.00;7.90;;;;;;;1.08;67.74;99982.98;460564;1190;141279;-66
2021/10/26 03:28:14;;;;;;;15.40;8.50;;;;;;;0.92;67.59;99978.09;476174;1189;141569;-66
2021/10/26 03:38:19;;;;;;;13.70;8.30;;;;;;;0.75;67.80;99983.56;461417;1190;141872;-65
2021/10/26 03:48:26;;;;;;;14.60;8.40;;;;;;;0.63;68.18;99980.14;460912;1190;141017;-66
2021/10/26 03:58:34;;;;;;;15.10;8.70;;;;;;;0.52;68.70;99982.04;464385;1180;142059;-64
2021/10/26 04:08:51;;;;;;;13.00;7.60;;;;;;;0.46;68.95;99974.73;461888;1190;140907;-67
2021/10/26 04:18:57;;;;;;;13.50;10.50;;;;;;;0.42;69.52;99963.95;465379;1190;141106;-67
2021/10/26 04:29:03;;;;;;;17.70;9.20;;;;;;;0.40;70.33;99956.39;461120;1190;140666;-66
2021/10/26 04:39:10;;;;;;;18.00;11.00;;;;;;;0.37;70.39;99949.73;460577;1190;141794;-66
2021/10/26 04:49:16;;;;;;;24.70;11.50;;;;;;;0.39;70.88;99946.60;461227;1190;141229;-66
2021/10/26 04:59:23;;;;;;;14.90;10.50;;;;;;;0.44;71.02;99941.19;465121;1190;199447;-67
2021/10/26 05:09:28;;;;;;;14.10;8.20;;;;;;;0.42;70.88;99942.08;473748;1190;197598;-67
2021/10/26 05:19:36;;;;;;;21.70;9.90;;;;;;;0.45;71.08;99942.54;477882;1189;140760;-66
2021/10/26 05:29:42;;;;;;;18.00;10.10;;;;;;;0.49;71.03;99939.55;466720;1190;180889;-66
2021/10/26 05:39:48;;;;;;;14.70;9.60;;;;;;;0.50;71.20;99941.94;477747;1189;141150;-66
2021/10/26 05:49:54;;;;;;;18.40;10.70;;;;;;;0.71;71.86;99950.02;477868;1190;141951;-66
2021/10/26 06:00:00;;;;;;;17.40;11.60;;;;;;;1.00;71.95;99961.57;477108;1189;141454;-66
2021/10/26 06:10:08;;;;;;;16.00;12.70;;;;;;;1.48;72.10;99972.02;477951;1190;142556;-66
2021/10/26 06:20:16;;;;;;;23.40;14.00;;;;;;;2.04;71.76;99984.14;471589;1190;142248;-67
2021/10/26 06:30:22;;;;;;;16.70;13.40;;;;;;;2.95;71.88;99985.91;477000;1190;214928;-67
2021/10/26 06:40:29;;;;;;;18.10;12.60;;;;;;;4.66;70.74;99987.59;477717;1190;145144;-64
2021/10/26 06:50:35;;;;;;;26.50;14.30;;;;;;;6.89;68.06;99985.39;477093;1190;141327;-69
2021/10/26 07:00:43;;;;;;;17.80;12.30;;;;;;;8.18;65.10;99986.86;473651;1189;141684;-66
2021/10/26 07:10:51;;;;;;;17.30;12.20;;;;;;;9.05;63.35;99996.09;467546;1189;140954;-64
2021/10/26 07:20:58;;;;;;;12.20;10.20;;;;;;;10.33;61.27;100001.17;477105;1189;140977;-63
2021/10/26 07:31:04;;;;;;;13.60;10.40;;;;;;;11.83;59.19;99993.14;477794;1190;141763;-65
2021/10/26 07:41:11;;;;;;;13.30;9.00;;;;;;;15.66;55.24;99978.61;471630;1190;141015;-70
2021/10/26 07:51:17;;;;;;;11.50;10.20;;;;;;;18.11;50.96;99979.20;453039;1187;20001080;-68
2021/10/26 08:01:23;;;;;;;11.90;10.00;;;;;;;19.67;47.24;99976.00;461738;1190;145243;-67
2021/10/26 08:11:32;;;;;;;11.50;9.70;;;;;;;20.10;45.23;99959.02;465435;1189;146965;-63
2021/10/26 08:21:38;;;;;;;;;;;;;;;21.39;42.87;99957.38;462610;1190;140920;-69
2021/10/26 08:31:50;;;;;;;13.90;9.70;;;;;;;23.00;40.66;99942.42;466490;1190;127734;-67
2021/10/26 08:41:59;;;;;;;18.20;8.30;;;;;;;26.04;37.79;99939.84;477083;1190;142869;-62
2021/10/26 08:52:05;;;;;;;9.50;7.40;;;;;;;26.59;35.45;99937.39;477841;1189;141636;-62
2021/10/26 09:02:13;;;;;;;8.10;6.90;;;;;;;25.63;34.19;99926.91;477748;1190;144368;-69
2021/10/26 09:22:51;;;;;;;7.80;6.80;;;;;;;21.55;34.93;99925.31;472049;1189;141247;-64
2021/10/26 09:32:57;;;;;;;9.20;6.30;;;;;;;18.28;37.27;99943.84;469644;1190;143039;-65
2021/10/26 09:43:08;;;;;;;9.80;7.50;;;;;;;16.14;39.36;99951.63;474378;1189;140080;-63
2021/10/26 09:53:15;;;;;;;8.80;6.60;;;;;;;14.69;41.38;99958.17;470209;1189;140920;-63
2021/10/26 10:03:25;;;;;;;7.80;6.30;;;;;;;13.87;42.94;99948.80;477010;1190;140212;-63
2021/10/26 10:13:30;;;;;;;8.30;7.20;;;;;;;13.36;44.16;99945.67;477772;1190;143389;-68
2021/10/26 10:23:42;;;;;;;12.50;7.50;;;;;;;13.07;45.16;99938.00;468138;1190;140365;-66
2021/10/26 10:33:49;;;;;;;9.50;6.60;;;;;;;13.25;45.56;99929.51;472417;1190;139885;-63
2021/10/26 10:43:56;;;;;;;11.70;7.20;;;;;;;13.25;45.60;99915.67;469899;1190;142252;-64
2021/10/26 10:54:02;;;;;;;11.50;7.90;;;;;;;13.10;45.76;99907.20;471503;1189;141753;-70
2021/10/26 11:04:38;;;;;;;9.10;6.80;;;;;;;13.10;46.18;99895.23;477778;1189;141583;-67
2021/10/26 11:14:49;;;;;;;9.70;7.30;;;;;;;13.37;46.05;99888.98;470364;1190;141714;-62
2021/10/26 11:25:22;;;;;;;8.70;6.90;;;;;;;13.40;46.17;99877.66;471273;1190;145259;-60
2021/10/26 11:35:42;;;;;;;8.60;7.00;;;;;;;13.33;46.19;99862.58;467176;1190;140500;-62
2021/10/26 11:45:56;;;;;;;10.10;7.30;;;;;;;13.41;46.49;99863.23;465571;1190;140815;-66
2021/10/26 11:56:22;;;;;;;11.70;8.40;;;;;;;13.43;46.46;99856.39;461359;1190;140802;-64
2021/10/26 12:06:37;;;;;;;10.70;6.90;;;;;;;13.54;46.64;99867.77;461199;1190;140583;-68
2021/10/26 12:16:58;;;;;;;11.60;7.10;;;;;;;13.63;46.75;99864.63;461226;1190;140609;-68
2021/10/26 12:27:07;;;;;;;8.80;7.40;;;;;;;13.69;46.98;99859.34;463406;1190;142019;-68
2021/10/26 12:37:23;;;;;;;10.50;7.20;;;;;;;13.84;46.88;99846.94;464368;1190;140566;-66
2021/10/26 12:47:33;;;;;;;10.60;7.10;;;;;;;13.58;46.56;99846.52;460779;1190;140907;-69
2021/10/26 12:57:40;;;;;;;7.50;6.10;;;;;;;13.20;47.12;99847.28;463516;1190;141089;-62
2021/10/26 13:07:45;;;;;;;10.60;6.50;;;;;;;12.93;47.46;99851.41;461360;1190;141131;-64
2021/10/26 13:18:04;;;;;;;9.40;5.90;;;;;;;12.75;47.90;99856.00;460049;1190;142786;-64
2021/10/26 13:28:09;;;;;;;;;;;;;;;12.61;48.32;99856.61;461421;1190;140092;-68
2021/10/26 13:38:16;;;;;;;8.70;7.80;;;;;;;12.32;48.79;99859.40;454834;1190;10002155;-70
2021/10/26 13:48:22;;;;;;;13.00;7.80;;;;;;;12.13;49.55;99854.90;461972;1190;140856;-64
2021/10/26 13:58:28;;;;;;;8.40;6.70;;;;;;;11.89;50.25;99860.27;464753;1175;140396;-66
2021/10/26 14:08:34;;;;;;;10.50;8.00;;;;;;;11.85;50.76;99861.26;467887;1177;141791;-64
2021/10/26 14:18:42;;;;;;;10.20;8.40;;;;;;;12.02;51.00;99867.37;461771;1178;141926;-67
2021/10/26 14:28:50;;;;;;;11.30;7.60;;;;;;;11.96;51.08;99869.80;462948;1182;141195;-65
2021/10/26 14:39:00;;;;;;;12.60;9.00;;;;;;;11.77;51.59;99880.85;476417;1189;142730;-69
2021/10/26 14:59:30;;;;;;;18.30;10.40;;;;;;;11.35;52.66;99892.26;474401;1189;140828;-68
2021/10/26 15:09:41;;;;;;;16.20;10.00;;;;;;;11.20;53.24;99901.09;464856;1190;141145;-66
2021/10/26 15:19:49;;;;;;;19.10;11.50;;;;;;;10.97;53.81;99908.41;471917;1189;140559;-65
2021/10/26 15:40:20;;;;;;;17.00;12.70;;;;;;;10.64;55.03;99909.14;464583;1190;140735;-66
2021/10/26 15:50:27;;;;;;;19.00;13.00;;;;;;;10.63;55.62;99921.09;472827;1176;141724;-65
2021/10/26 16:00:33;;;;;;;14.20;12.40;;;;;;;10.62;56.02;99926.92;462093;1190;141277;-69
2021/10/26 16:10:43;;;;;;;18.30;14.10;;;;;;;10.59;56.26;99923.05;460763;1190;141971;-66
2021/10/26 16:20:50;;;;;;;17.00;14.30;;;;;;;10.52;56.57;99929.96;469045;1190;141676;-66
2021/10/26 16:30:56;;;;;;;18.20;14.70;;;;;;;10.33;57.13;99943.62;461198;1190;140691;-66
2021/10/26 16:41:06;;;;;;;18.00;13.70;;;;;;;10.13;57.65;99950.86;460813;1190;140996;-67
2021/10/26 16:51:17;;;;;;;30.80;23.50;;;;;;;9.95;58.25;99959.76;466933;1190;140479;-69
2021/10/26 17:01:25;;;;;;;29.20;18.90;;;;;;;9.95;58.51;99970.25;476840;1189;140533;-66
2021/10/26 17:11:31;;;;;;;46.20;26.80;;;;;;;10.00;58.68;99976.05;472686;1190;140958;-67
2021/10/26 17:21:37;;;;;;;31.20;19.70;;;;;;;10.02;58.90;99988.52;476634;1190;141936;-68
2021/10/26 17:31:44;;;;;;;32.80;20.40;;;;;;;10.04;59.10;99993.69;463821;1190;140678;-69
2021/10/26 17:41:50;;;;;;;40.10;22.80;;;;;;;10.00;59.55;100006.84;464196;1190;140738;-69
2021/10/26 17:51:56;;;;;;;27.30;17.40;;;;;;;9.97;59.93;100006.66;462982;1190;143847;-69
2021/10/26 18:02:02;;;;;;;63.00;36.30;;;;;;;9.95;60.17;100010.44;461244;1190;140543;-68
2021/10/26 18:12:12;;;;;;;34.10;22.10;;;;;;;9.94;60.41;100009.45;477107;1190;141194;-69
2021/10/26 18:22:18;;;;;;;43.00;24.40;;;;;;;9.93;60.76;100007.05;477744;1190;142406;-68
2021/10/26 18:32:24;;;;;;;94.40;44.50;;;;;;;9.96;60.94;100009.33;477132;1189;162434;-67
2021/10/26 18:42:34;;;;;;;62.80;33.10;;;;;;;9.91;61.29;100018.19;477787;1190;142072;-67
2021/10/26 18:52:40;;;;;;;72.40;35.80;;;;;;;9.88;61.61;100023.08;465085;1190;141310;-67
2021/10/26 19:02:47;;;;;;;62.90;34.20;;;;;;;9.83;61.96;100030.83;477055;1189;141684;-69
2021/10/26 19:12:53;;;;;;;40.20;24.80;;;;;;;9.73;62.21;100030.37;471301;1190;142375;-60
2021/10/26 19:22:59;;;;;;;55.30;29.80;;;;;;;9.62;62.59;100035.81;469784;1190;143187;-59
2021/10/26 19:33:04;;;;;;;41.90;24.60;;;;;;;9.49;63.04;100036.48;471299;1189;141843;-61
2021/10/26 19:43:13;;;;;;;29.40;20.80;;;;;;;9.37;63.60;100048.48;477787;1189;141738;-61
2021/10/26 19:53:19;;;;;;;24.20;18.20;;;;;;;9.32;63.91;100055.71;468710;1190;141213;-60
2021/10/26 20:03:27;;;;;;;22.70;17.90;;;;;;;9.28;64.35;100062.02;477778;1190;141792;-61
2021/10/26 20:13:34;;;;;;;23.70;16.70;;;;;;;9.29;64.93;100079.27;477830;1190;141824;-61
2021/10/26 20:24:02;;;;;;;20.50;15.30;;;;;;;9.32;65.21;100085.59;465664;1190;142284;-59
2021/10/26 20:34:11;;;;;;;19.10;15.80;;;;;;;9.17;65.63;100084.21;472698;1190;140773;-60
2021/10/26 20:44:17;;;;;;;20.20;14.30;;;;;;;9.05;65.93;100087.95;470982;1190;141460;-61
2021/10/26 20:54:30;;;;;;;17.70;14.80;;;;;;;9.03;66.40;100091.40;477725;1190;141773;-61
2021/10/26 21:04:36;;;;;;;20.50;14.20;;;;;;;9.07;66.68;100098.67;476830;1190;141544;-60
2021/10/26 21:14:43;;;;;;;19.20;14.20;;;;;;;9.06;66.86;100093.02;468005;1190;141567;-60
2021/10/26 21:24:49;;;;;;;19.50;14.40;;;;;;;8.99;67.05;100096.83;467754;1189;10001611;-60
2021/10/26 21:35:00;;;;;;;17.00;13.50;;;;;;;8.79;67.23;100097.44;469004;1188;143873;-58
2021/10/26 21:45:07;;;;;;;22.80;15.60;;;;;;;8.55;67.70;100096.82;476976;1184;142842;-59
2021/10/26 21:55:13;;;;;;;19.50;14.90;;;;;;;8.33;67.98;100086.80;476979;1190;144488;-59
2021/10/26 22:05:19;;;;;;;18.60;14.90;;;;;;;8.09;68.40;100086.70;461404;1190;145801;-59
2021/10/26 22:15:25;;;;;;;18.80;14.60;;;;;;;7.82;69.06;100097.29;477666;1190;145431;-59
2021/10/26 22:25:31;;;;;;;17.20;14.40;;;;;;;7.56;69.47;100106.27;471530;1190;142490;-59
2021/10/26 22:35:37;;;;;;;16.70;14.00;;;;;;;7.47;69.99;100119.89;472265;1190;143411;-59
2021/10/26 22:45:44;;;;;;;18.50;13.00;;;;;;;7.41;70.30;100125.71;471471;1190;141959;-59
2021/10/26 22:55:49;;;;;;;19.50;14.50;;;;;;;7.24;70.58;100115.45;472242;1190;141132;-60
2021/10/26 23:05:55;;;;;;;18.40;13.20;;;;;;;7.16;71.33;100115.27;470568;1176;141076;-60
2021/10/26 23:16:01;;;;;;;18.60;13.80;;;;;;;7.19;71.76;100123.68;461987;1190;141357;-59
2021/10/26 23:26:07;;;;;;;19.10;14.30;;;;;;;7.21;72.06;100128.82;461885;1190;145493;-56
2021/10/26 23:36:14;;;;;;;20.20;14.70;;;;;;;7.24;72.17;100126.61;460617;1190;140984;-58
2021/10/26 23:46:20;;;;;;;17.10;13.50;;;;;;;7.30;72.31;100124.46;470492;1190;141830;-59
2021/10/26 23:56:25;;;;;;;18.00;12.80;;;;;;;7.37;72.34;100138.27;477034;1189;141237;-59
